createdAt,value
2018-06-23T00:00:08.794Z,5.80
2018-06-23T00:01:08.752Z,6.50
2018-06-23T00:02:08.769Z,6.20
2018-06-23T00:03:08.679Z,5.70
2018-06-23T00:04:08.641Z,6.30
2018-06-23T00:05:08.624Z,6.80
2018-06-23T00:06:08.585Z,5.70
2018-06-23T00:07:08.588Z,6.10
2018-06-23T00:08:08.488Z,8.80
2018-06-23T00:09:08.480Z,6.60
2018-06-23T00:10:08.436Z,6.20
2018-06-23T00:11:08.414Z,6.60
2018-06-23T00:12:08.391Z,7.40
2018-06-23T00:13:08.424Z,7.10
2018-06-23T00:14:08.275Z,6.70
2018-06-23T00:15:08.249Z,7.00
2018-06-23T00:16:08.209Z,7.10
2018-06-23T00:17:08.193Z,6.90
2018-06-23T00:18:08.158Z,6.60
2018-06-23T00:19:08.135Z,5.90
2018-06-23T00:20:08.064Z,6.60
2018-06-23T00:21:08.031Z,6.50
2018-06-23T00:22:07.993Z,5.90
2018-06-23T00:23:07.969Z,6.60
2018-06-23T00:24:07.932Z,6.80
2018-06-23T00:25:07.883Z,6.60
2018-06-23T00:26:07.865Z,7.40
2018-06-23T00:27:07.839Z,7.30
2018-06-23T00:28:07.791Z,5.70
2018-06-23T00:29:07.749Z,6.10
2018-06-23T00:30:07.710Z,6.20
2018-06-23T00:31:07.669Z,6.30
2018-06-23T00:32:07.645Z,6.30
2018-06-23T00:33:07.618Z,7.00
2018-06-23T00:34:07.565Z,7.90
2018-06-23T00:35:07.536Z,7.10
2018-06-23T00:36:07.501Z,7.80
2018-06-23T00:37:07.459Z,7.90
2018-06-23T00:38:07.510Z,7.90
2018-06-23T00:39:07.402Z,7.20
2018-06-23T00:40:07.350Z,6.00
2018-06-23T00:41:07.312Z,6.90
2018-06-23T00:42:07.275Z,6.50
2018-06-23T00:43:07.264Z,7.10
2018-06-23T00:44:07.223Z,6.20
2018-06-23T00:45:07.172Z,6.70
2018-06-23T00:46:07.133Z,6.40
2018-06-23T00:47:07.207Z,7.90
2018-06-23T00:48:07.061Z,5.30
2018-06-23T00:49:07.052Z,7.50
2018-06-23T00:50:06.989Z,6.40
2018-06-23T00:51:06.963Z,6.20
2018-06-23T00:52:06.926Z,7.60
2018-06-23T00:53:06.960Z,6.60
2018-06-23T00:54:06.853Z,7.10
2018-06-23T00:55:06.816Z,6.70
2018-06-23T00:56:06.778Z,7.30
2018-06-23T00:57:06.756Z,8.00
2018-06-23T00:58:06.726Z,7.30
2018-06-23T00:59:06.705Z,7.60
2018-06-23T01:00:06.631Z,6.70
2018-06-23T01:01:06.593Z,6.50
2018-06-23T01:02:06.603Z,8.50
2018-06-23T01:03:06.603Z,6.70
2018-06-23T01:04:06.509Z,6.40
2018-06-23T01:05:06.507Z,6.00
2018-06-23T01:06:06.417Z,7.10
2018-06-23T01:07:06.385Z,7.10
2018-06-23T01:08:06.347Z,6.60
2018-06-23T01:09:06.323Z,6.70
2018-06-23T01:10:06.293Z,8.00
2018-06-23T01:11:06.311Z,7.60
2018-06-23T01:12:06.226Z,7.50
2018-06-23T01:13:06.164Z,7.90
2018-06-23T01:14:06.128Z,6.90
2018-06-23T01:15:06.134Z,6.80
2018-06-23T01:16:06.076Z,8.30
2018-06-23T01:17:06.024Z,7.40
2018-06-23T01:18:05.996Z,8.10
2018-06-23T01:19:05.975Z,7.50
2018-06-23T01:20:05.914Z,7.60
2018-06-23T01:21:05.893Z,8.30
2018-06-23T01:22:05.855Z,7.90
2018-06-23T01:23:05.805Z,6.90
2018-06-23T01:24:05.852Z,7.30
2018-06-23T01:25:05.741Z,6.80
2018-06-23T01:26:05.739Z,7.90
2018-06-23T01:27:05.673Z,7.60
2018-06-23T01:28:05.624Z,7.60
2018-06-23T01:29:05.631Z,7.80
2018-06-23T01:30:05.563Z,8.70
2018-06-23T01:31:05.546Z,7.10
2018-06-23T01:32:05.490Z,8.10
2018-06-23T01:33:05.445Z,8.20
2018-06-23T01:34:05.408Z,7.50
2018-06-23T01:35:05.378Z,8.30
2018-06-23T01:36:06.301Z,7.90
2018-06-23T01:37:05.800Z,8.00
2018-06-23T01:38:05.264Z,9.00
2018-06-23T01:39:05.231Z,7.30
2018-06-23T01:40:05.188Z,6.80
2018-06-23T01:41:05.163Z,7.80
2018-06-23T01:42:05.121Z,8.40
2018-06-23T01:43:05.084Z,8.20
2018-06-23T01:44:05.049Z,7.70
2018-06-23T01:45:05.013Z,8.10
2018-06-23T01:46:04.978Z,8.50
2018-06-23T01:47:04.937Z,9.30
2018-06-23T01:48:04.903Z,8.60
2018-06-23T01:49:04.867Z,8.40
2018-06-23T01:50:04.825Z,8.50
2018-06-23T01:51:04.790Z,8.20
2018-06-23T01:52:04.784Z,8.10
2018-06-23T01:53:04.722Z,7.80
2018-06-23T01:54:04.686Z,9.10
2018-06-23T01:55:04.665Z,7.20
2018-06-23T01:56:04.612Z,7.80
2018-06-23T01:57:04.575Z,8.10
2018-06-23T01:58:04.547Z,8.30
2018-06-23T01:59:04.504Z,9.70
2018-06-23T02:00:04.470Z,8.60
2018-06-23T02:01:04.430Z,8.30
2018-06-23T02:02:04.396Z,9.00
2018-06-23T02:03:04.355Z,8.00
2018-06-23T02:04:04.323Z,8.50
2018-06-23T02:05:04.290Z,8.80
2018-06-23T02:06:04.272Z,7.90
2018-06-23T02:07:04.214Z,9.10
2018-06-23T02:08:04.184Z,8.50
2018-06-23T02:09:04.140Z,9.00
2018-06-23T02:10:04.105Z,8.00
2018-06-23T02:11:04.069Z,8.40
2018-06-23T02:12:04.032Z,9.00
2018-06-23T02:13:04.011Z,8.10
2018-06-23T02:14:03.959Z,7.60
2018-06-23T02:15:03.924Z,9.00
2018-06-23T02:16:03.886Z,8.40
2018-06-23T02:17:03.851Z,8.00
2018-06-23T02:18:03.815Z,7.60
2018-06-23T02:19:03.778Z,8.40
2018-06-23T02:20:03.762Z,8.60
2018-06-23T02:21:03.705Z,9.10
2018-06-23T02:22:03.668Z,7.80
2018-06-23T02:23:03.634Z,8.50
2018-06-23T02:24:03.598Z,8.80
2018-06-23T02:25:03.560Z,8.20
2018-06-23T02:26:03.523Z,9.40
2018-06-23T02:27:03.503Z,8.60
2018-06-23T02:28:03.451Z,8.80
2018-06-23T02:29:03.414Z,8.40
2018-06-23T02:30:03.381Z,8.30
2018-06-23T02:31:03.339Z,7.70
2018-06-23T02:32:03.325Z,8.50
2018-06-23T02:33:03.271Z,8.90
2018-06-23T02:34:03.233Z,8.00
2018-06-23T02:35:03.203Z,8.50
2018-06-23T02:36:03.162Z,8.00
2018-06-23T02:37:03.127Z,8.70
2018-06-23T02:38:03.089Z,8.10
2018-06-23T02:39:03.087Z,7.30
2018-06-23T02:40:03.041Z,8.60
2018-06-23T02:41:02.978Z,9.30
2018-06-23T02:42:02.946Z,8.50
2018-06-23T02:43:02.910Z,8.20
2018-06-23T02:44:02.869Z,9.30
2018-06-23T02:45:02.834Z,9.00
2018-06-23T02:46:02.816Z,8.00
2018-06-23T02:47:02.759Z,8.20
2018-06-23T02:48:02.721Z,9.40
2018-06-23T02:49:02.690Z,8.60
2018-06-23T02:50:02.651Z,8.10
2018-06-23T02:51:02.648Z,9.70
2018-06-23T02:52:02.590Z,7.90
2018-06-23T02:53:02.542Z,7.80
2018-06-23T02:54:02.513Z,8.80
2018-06-23T02:55:02.472Z,8.30
2018-06-23T02:56:02.434Z,8.90
2018-06-23T02:57:02.400Z,8.20
2018-06-23T02:58:02.379Z,8.90
2018-06-23T02:59:02.340Z,7.90
2018-06-23T03:00:02.294Z,7.10
2018-06-23T03:01:02.253Z,8.90
2018-06-23T03:02:02.219Z,8.40
2018-06-23T03:03:02.179Z,9.30
2018-06-23T03:04:02.140Z,8.50
2018-06-23T03:05:02.108Z,8.20
2018-06-23T03:06:02.075Z,8.50
2018-06-23T03:07:02.060Z,9.90
2018-06-23T03:08:01.993Z,9.10
2018-06-23T03:09:01.962Z,9.90
2018-06-23T03:10:01.949Z,8.50
2018-06-23T03:11:01.887Z,8.60
2018-06-23T03:12:01.868Z,9.50
2018-06-23T03:13:01.816Z,9.50
2018-06-23T03:14:01.777Z,9.80
2018-06-23T03:15:01.743Z,9.90
2018-06-23T03:16:01.706Z,10.10
2018-06-23T03:17:01.670Z,8.30
2018-06-23T03:18:01.635Z,8.90
2018-06-23T03:19:01.617Z,9.20
2018-06-23T03:20:01.563Z,8.70
2018-06-23T03:21:01.521Z,9.10
2018-06-23T03:22:01.493Z,9.20
2018-06-23T03:23:01.451Z,11.20
2018-06-23T03:24:01.411Z,9.70
2018-06-23T03:25:01.381Z,9.80
2018-06-23T03:26:01.340Z,10.40
2018-06-23T03:27:01.307Z,9.20
2018-06-23T03:28:01.265Z,9.90
2018-06-23T03:29:01.231Z,9.50
2018-06-23T03:30:01.197Z,9.30
2018-06-23T03:31:01.160Z,9.60
2018-06-23T03:32:01.124Z,9.50
2018-06-23T03:33:01.089Z,9.60
2018-06-23T03:34:01.052Z,8.10
2018-06-23T03:35:01.011Z,9.00
2018-06-23T03:36:00.991Z,7.70
2018-06-23T03:37:00.940Z,10.50
2018-06-23T03:38:00.904Z,10.60
2018-06-23T03:39:00.865Z,9.90
2018-06-23T03:40:00.830Z,10.30
2018-06-23T03:41:00.795Z,10.20
2018-06-23T03:42:00.756Z,8.80
2018-06-23T03:43:00.741Z,9.50
2018-06-23T03:44:00.683Z,8.70
2018-06-23T03:45:00.648Z,8.90
2018-06-23T03:46:00.614Z,8.30
2018-06-23T03:47:00.573Z,8.50
2018-06-23T03:48:00.541Z,8.80
2018-06-23T03:49:00.499Z,8.80
2018-06-23T03:50:00.480Z,8.60
2018-06-23T03:51:00.432Z,9.10
2018-06-23T03:52:00.401Z,8.40
2018-06-23T03:53:00.359Z,9.60
2018-06-23T03:54:00.325Z,8.90
2018-06-23T03:55:00.283Z,8.50
2018-06-23T03:56:00.248Z,8.40
2018-06-23T03:57:00.213Z,9.50
2018-06-23T03:58:00.175Z,8.70
2018-06-23T03:59:00.137Z,8.90
2018-06-23T04:00:00.106Z,9.00
2018-06-23T04:01:00.088Z,8.40
2018-06-23T04:02:00.047Z,8.30
2018-06-23T04:02:59.998Z,7.50
2018-06-23T04:03:59.961Z,8.10
2018-06-23T04:04:59.920Z,8.30
2018-06-23T04:05:59.886Z,8.00
2018-06-23T04:06:59.850Z,8.80
2018-06-23T04:07:59.813Z,8.50
2018-06-23T04:08:59.787Z,9.00
2018-06-23T04:09:59.740Z,7.90
2018-06-23T04:10:59.704Z,8.60
2018-06-23T04:11:59.668Z,9.40
2018-06-23T04:12:59.634Z,8.00
2018-06-23T04:13:59.600Z,9.10
2018-06-23T04:14:59.560Z,8.10
2018-06-23T04:15:59.523Z,8.80
2018-06-23T04:16:59.488Z,8.10
2018-06-23T04:17:59.457Z,7.70
2018-06-23T04:18:59.451Z,9.20
2018-06-23T04:19:59.446Z,8.50
2018-06-23T04:20:59.358Z,7.60
2018-06-23T04:21:59.322Z,7.70
2018-06-23T04:22:59.332Z,8.10
2018-06-23T04:23:59.242Z,7.90
2018-06-23T04:24:59.205Z,8.50
2018-06-23T04:25:59.164Z,7.90
2018-06-23T04:26:59.130Z,7.70
2018-06-23T04:27:59.105Z,7.20
2018-06-23T04:28:59.058Z,8.00
2018-06-23T04:29:59.021Z,8.00
2018-06-23T04:30:58.990Z,6.90
2018-06-23T04:31:58.953Z,7.50
2018-06-23T04:32:58.922Z,7.10
2018-06-23T04:33:58.903Z,8.00
2018-06-23T04:34:58.844Z,8.40
2018-06-23T04:35:58.810Z,7.40
2018-06-23T04:36:58.777Z,8.10
2018-06-23T04:37:58.761Z,8.20
2018-06-23T04:38:58.705Z,6.40
2018-06-23T04:39:58.669Z,7.70
2018-06-23T04:40:58.632Z,7.40
2018-06-23T04:41:58.599Z,6.90
2018-06-23T04:42:58.562Z,7.20
2018-06-23T04:43:58.527Z,7.30
2018-06-23T04:44:58.495Z,7.10
2018-06-23T04:45:58.456Z,7.20
2018-06-23T04:46:58.424Z,6.90
2018-06-23T04:47:58.390Z,7.00
2018-06-23T04:48:58.352Z,7.60
2018-06-23T04:49:58.318Z,6.90
2018-06-23T04:50:58.286Z,7.40
2018-06-23T04:51:58.244Z,7.20
2018-06-23T04:52:58.213Z,7.10
2018-06-23T04:53:58.176Z,7.80
2018-06-23T04:54:58.143Z,7.10
2018-06-23T04:55:58.140Z,8.00
2018-06-23T04:56:58.073Z,7.60
2018-06-23T04:57:58.079Z,7.00
2018-06-23T04:58:58.005Z,7.40
2018-06-23T04:59:57.976Z,7.20
2018-06-23T05:00:57.935Z,6.10
2018-06-23T05:01:57.902Z,7.20
2018-06-23T05:02:57.865Z,7.90
2018-06-23T05:03:57.832Z,7.40
2018-06-23T05:04:57.816Z,7.10
2018-06-23T05:05:57.762Z,6.80
2018-06-23T05:06:57.727Z,7.00
2018-06-23T05:07:57.694Z,7.00
2018-06-23T05:08:57.661Z,7.80
2018-06-23T05:09:57.627Z,7.40
2018-06-23T05:10:57.591Z,8.00
2018-06-23T05:11:57.556Z,6.50
2018-06-23T05:12:57.528Z,8.10
2018-06-23T05:13:57.485Z,6.30
2018-06-23T05:14:57.478Z,7.00
2018-06-23T05:15:57.418Z,7.10
2018-06-23T05:16:58.315Z,6.90
2018-06-23T05:17:57.351Z,7.10
2018-06-23T05:18:57.319Z,7.80
2018-06-23T05:19:57.282Z,7.60
2018-06-23T05:20:57.251Z,6.60
2018-06-23T05:21:57.215Z,6.30
2018-06-23T05:22:57.183Z,7.10
2018-06-23T05:23:57.148Z,6.70
2018-06-23T05:24:57.121Z,6.20
2018-06-23T05:25:57.109Z,6.70
2018-06-23T05:26:57.046Z,7.30
2018-06-23T05:27:57.013Z,5.90
2018-06-23T05:28:56.980Z,6.60
2018-06-23T05:29:56.963Z,6.80
2018-06-23T05:30:56.914Z,6.50
2018-06-23T05:31:56.880Z,6.60
2018-06-23T05:32:56.847Z,5.80
2018-06-23T05:33:56.813Z,6.70
2018-06-23T05:34:56.790Z,7.00
2018-06-23T05:35:56.746Z,6.70
2018-06-23T05:36:56.708Z,6.30
2018-06-23T05:37:56.681Z,6.20
2018-06-23T05:38:56.648Z,7.30
2018-06-23T05:39:56.623Z,6.40
2018-06-23T05:40:56.583Z,6.30
2018-06-23T05:41:56.548Z,7.10
2018-06-23T05:42:56.537Z,5.40
2018-06-23T05:43:56.484Z,6.60
2018-06-23T05:44:56.454Z,6.10
2018-06-23T05:45:56.420Z,7.20
2018-06-23T05:46:56.392Z,6.60
2018-06-23T05:47:56.352Z,6.40
2018-06-23T05:48:56.321Z,6.80
2018-06-23T05:49:56.287Z,7.50
2018-06-23T05:50:56.256Z,6.70
2018-06-23T05:51:56.224Z,7.30
2018-06-23T05:52:56.209Z,5.60
2018-06-23T05:53:56.160Z,5.90
2018-06-23T05:54:56.125Z,5.70
2018-06-23T05:55:56.118Z,6.50
2018-06-23T05:56:56.062Z,5.50
2018-06-23T05:57:56.029Z,6.20
2018-06-23T05:58:56.002Z,6.50
2018-06-23T05:59:55.966Z,5.70
2018-06-23T06:00:55.958Z,6.00
2018-06-23T06:01:55.916Z,6.00
2018-06-23T06:02:55.864Z,6.10
2018-06-23T06:03:55.832Z,5.80
2018-06-23T06:04:55.798Z,6.10
2018-06-23T06:05:55.770Z,5.70
2018-06-23T06:06:55.741Z,5.90
2018-06-23T06:07:55.701Z,6.50
2018-06-23T06:08:55.691Z,5.70
2018-06-23T06:09:55.636Z,5.90
2018-06-23T06:10:55.607Z,5.70
2018-06-23T06:11:55.572Z,5.80
2018-06-23T06:12:55.609Z,5.90
2018-06-23T06:13:55.503Z,5.00
2018-06-23T06:14:55.476Z,5.60
2018-06-23T06:15:55.441Z,5.30
2018-06-23T06:16:55.409Z,5.50
2018-06-23T06:17:55.376Z,5.90
2018-06-23T06:18:55.370Z,6.20
2018-06-23T06:19:55.307Z,6.40
2018-06-23T06:20:55.282Z,5.80
2018-06-23T06:21:55.632Z,5.60
2018-06-23T06:22:55.212Z,6.00
2018-06-23T06:23:55.209Z,5.70
2018-06-23T06:24:55.146Z,5.70
2018-06-23T06:25:55.113Z,6.50
2018-06-23T06:26:55.107Z,6.70
2018-06-23T06:27:55.046Z,5.20
2018-06-23T06:28:55.013Z,5.60
2018-06-23T06:29:54.985Z,5.30
2018-06-23T06:30:54.952Z,5.20
2018-06-23T06:31:54.920Z,4.90
2018-06-23T06:32:54.891Z,6.10
2018-06-23T06:33:54.848Z,5.60
2018-06-23T06:34:54.816Z,5.50
2018-06-23T06:35:54.785Z,5.80
2018-06-23T06:36:54.752Z,5.80
2018-06-23T06:37:54.717Z,5.40
2018-06-23T06:38:54.692Z,5.60
2018-06-23T06:39:54.653Z,6.10
2018-06-23T06:40:54.621Z,4.80
2018-06-23T06:41:54.588Z,5.30
2018-06-23T06:42:54.555Z,4.80
2018-06-23T06:43:54.526Z,5.20
2018-06-23T06:44:54.531Z,5.40
2018-06-23T06:45:54.458Z,5.20
2018-06-23T06:46:54.425Z,5.30
2018-06-23T06:47:54.394Z,4.70
2018-06-23T06:48:54.366Z,4.50
2018-06-23T06:49:54.327Z,4.00
2018-06-23T06:50:54.408Z,5.70
2018-06-23T06:51:54.259Z,4.90
2018-06-23T06:52:54.230Z,5.20
2018-06-23T06:53:54.197Z,5.00
2018-06-23T06:54:54.164Z,5.60
2018-06-23T06:55:54.130Z,5.10
2018-06-23T06:56:54.095Z,4.60
2018-06-23T06:57:54.084Z,5.10
2018-06-23T06:58:54.061Z,4.80
2018-06-23T06:59:54.000Z,4.70
2018-06-23T07:00:53.969Z,5.00
2018-06-23T07:01:53.936Z,4.70
2018-06-23T07:02:53.920Z,5.20
2018-06-23T07:03:53.871Z,4.30
2018-06-23T07:04:53.841Z,4.90
2018-06-23T07:05:53.804Z,5.00
2018-06-23T07:06:53.771Z,6.40
2018-06-23T07:07:53.755Z,4.50
2018-06-23T07:08:53.763Z,5.90
2018-06-23T07:09:53.676Z,5.90
2018-06-23T07:10:53.640Z,4.50
2018-06-23T07:11:53.610Z,4.70
2018-06-23T07:12:53.575Z,4.90
2018-06-23T07:13:53.545Z,4.40
2018-06-23T07:14:53.508Z,5.20
2018-06-23T07:15:53.477Z,5.20
2018-06-23T07:16:53.443Z,4.70
2018-06-23T07:17:53.411Z,4.90
2018-06-23T07:18:53.378Z,4.50
2018-06-23T07:19:53.346Z,5.10
2018-06-23T07:20:53.327Z,5.10
2018-06-23T07:21:53.278Z,4.90
2018-06-23T07:22:53.249Z,5.00
2018-06-23T07:23:53.344Z,5.00
2018-06-23T07:24:53.180Z,4.90
2018-06-23T07:25:53.148Z,4.50
2018-06-23T07:26:53.188Z,4.40
2018-06-23T07:27:53.085Z,5.60
2018-06-23T07:28:53.048Z,4.20
2018-06-23T07:29:53.025Z,4.60
2018-06-23T07:30:53.079Z,4.80
2018-06-23T07:31:52.951Z,4.80
2018-06-23T07:32:52.918Z,4.60
2018-06-23T07:33:52.886Z,5.00
2018-06-23T07:34:52.999Z,4.90
2018-06-23T07:35:52.816Z,4.50
2018-06-23T07:36:52.785Z,5.50
2018-06-23T07:37:52.752Z,5.50
2018-06-23T07:38:52.719Z,4.80
2018-06-23T07:39:52.687Z,4.90
2018-06-23T07:40:52.648Z,5.30
2018-06-23T07:41:52.646Z,5.50
2018-06-23T07:42:52.586Z,5.20
2018-06-23T07:43:52.552Z,5.20
2018-06-23T07:44:52.520Z,5.70
2018-06-23T07:45:52.483Z,4.80
2018-06-23T07:46:52.483Z,6.00
2018-06-23T07:47:52.422Z,5.70
2018-06-23T07:48:52.387Z,5.70
2018-06-23T07:49:52.356Z,5.20
2018-06-23T07:50:52.328Z,4.80
2018-06-23T07:51:52.310Z,4.80
2018-06-23T07:52:52.256Z,5.50
2018-06-23T07:53:52.223Z,5.00
2018-06-23T07:54:52.192Z,5.40
2018-06-23T07:55:52.158Z,6.10
2018-06-23T07:56:52.139Z,5.60
2018-06-23T07:57:52.094Z,5.10
2018-06-23T07:58:52.063Z,5.00
2018-06-23T07:59:52.027Z,5.30
2018-06-23T08:00:52.003Z,4.80
2018-06-23T08:01:51.961Z,4.90
2018-06-23T08:02:51.928Z,4.60
2018-06-23T08:03:51.942Z,5.00
2018-06-23T08:04:51.860Z,5.50
2018-06-23T08:05:51.829Z,5.60
2018-06-23T08:06:51.800Z,4.90
2018-06-23T08:07:51.761Z,4.60
2018-06-23T08:08:51.732Z,4.50
2018-06-23T08:09:51.697Z,5.20
2018-06-23T08:10:51.664Z,4.90
2018-06-23T08:11:51.635Z,4.50
2018-06-23T08:12:51.610Z,5.20
2018-06-23T08:13:51.567Z,5.10
2018-06-23T08:14:51.536Z,4.50
2018-06-23T08:15:51.501Z,4.90
2018-06-23T08:16:51.468Z,4.80
2018-06-23T08:17:51.436Z,5.30
2018-06-23T08:18:51.406Z,4.90
2018-06-23T08:19:51.370Z,4.30
2018-06-23T08:20:51.339Z,4.20
2018-06-23T08:21:51.308Z,4.40
2018-06-23T08:22:51.275Z,4.90
2018-06-23T08:23:51.241Z,4.10
2018-06-23T08:24:51.212Z,4.70
2018-06-23T08:25:51.178Z,3.90
2018-06-23T08:26:51.148Z,3.80
2018-06-23T08:27:51.116Z,4.30
2018-06-23T08:28:51.105Z,4.60
2018-06-23T08:29:51.049Z,3.90
2018-06-23T08:30:51.016Z,4.40
2018-06-23T08:31:51.010Z,4.70
2018-06-23T08:32:50.952Z,3.60
2018-06-23T08:33:50.921Z,3.70
2018-06-23T08:34:50.891Z,4.00
2018-06-23T08:35:50.872Z,4.90
2018-06-23T08:36:50.840Z,4.80
2018-06-23T08:37:50.857Z,4.50
2018-06-23T08:38:50.798Z,4.40
2018-06-23T08:39:50.736Z,4.20
2018-06-23T08:40:50.704Z,3.80
2018-06-23T08:41:50.666Z,4.60
2018-06-23T08:42:50.638Z,4.60
2018-06-23T08:43:50.607Z,4.90
2018-06-23T08:44:50.590Z,4.00
2018-06-23T08:45:50.568Z,4.70
2018-06-23T08:46:50.516Z,4.70
2018-06-23T08:47:50.485Z,4.40
2018-06-23T08:48:50.454Z,4.00
2018-06-23T08:49:50.426Z,4.30
2018-06-23T08:50:50.391Z,3.60
2018-06-23T08:51:50.363Z,4.00
2018-06-23T08:52:50.330Z,4.10
2018-06-23T08:53:50.303Z,5.50
2018-06-23T08:54:50.270Z,4.70
2018-06-23T08:55:50.242Z,4.10
2018-06-23T08:56:50.241Z,4.00
2018-06-23T08:57:50.194Z,3.60
2018-06-23T08:58:50.153Z,4.10
2018-06-23T08:59:50.118Z,3.60
2018-06-23T09:00:50.866Z,4.70
2018-06-23T09:01:50.142Z,4.90
2018-06-23T09:02:50.072Z,3.80
2018-06-23T09:03:50.002Z,4.40
2018-06-23T09:04:49.972Z,4.00
2018-06-23T09:05:49.945Z,4.00
2018-06-23T09:06:49.915Z,4.20
2018-06-23T09:07:49.886Z,3.70
2018-06-23T09:08:49.856Z,3.80
2018-06-23T09:09:49.823Z,4.10
2018-06-23T09:10:49.796Z,3.40
2018-06-23T09:11:49.792Z,4.40
2018-06-23T09:12:49.756Z,4.10
2018-06-23T09:13:49.703Z,4.00
2018-06-23T09:14:49.680Z,4.50
2018-06-23T09:15:49.650Z,4.10
2018-06-23T09:16:49.679Z,4.10
2018-06-23T09:17:49.592Z,4.00
2018-06-23T09:18:49.570Z,3.70
2018-06-23T09:19:49.538Z,3.10
2018-06-23T09:20:49.514Z,3.20
2018-06-23T09:21:49.480Z,3.40
2018-06-23T09:22:49.456Z,4.10
2018-06-23T09:23:49.428Z,3.50
2018-06-23T09:24:49.399Z,3.50
2018-06-23T09:25:49.383Z,4.00
2018-06-23T09:26:49.347Z,3.00
2018-06-23T09:27:49.317Z,3.60
2018-06-23T09:28:49.289Z,3.20
2018-06-23T09:29:49.263Z,3.70
2018-06-23T09:30:49.236Z,2.90
2018-06-23T09:31:49.226Z,3.60
2018-06-23T09:32:49.183Z,3.80
2018-06-23T09:33:49.155Z,4.00
2018-06-23T09:34:49.128Z,4.30
2018-06-23T09:35:49.098Z,4.00
2018-06-23T09:36:49.071Z,4.10
2018-06-23T09:37:49.042Z,3.80
2018-06-23T09:38:49.012Z,3.70
2018-06-23T09:39:48.987Z,3.60
2018-06-23T09:40:48.968Z,3.90
2018-06-23T09:41:48.930Z,3.90
2018-06-23T09:42:48.903Z,3.90
2018-06-23T09:43:48.867Z,3.50
2018-06-23T09:44:48.841Z,3.30
2018-06-23T09:45:48.847Z,3.00
2018-06-23T09:46:48.793Z,3.20
2018-06-23T09:47:48.756Z,3.40
2018-06-23T09:48:48.723Z,3.60
2018-06-23T09:49:48.723Z,3.60
2018-06-23T09:50:48.667Z,3.40
2018-06-23T09:51:48.633Z,3.50
2018-06-23T09:52:48.602Z,3.10
2018-06-23T09:53:48.573Z,3.40
2018-06-23T09:54:48.539Z,3.70
2018-06-23T09:55:48.515Z,3.30
2018-06-23T09:56:48.481Z,3.50
2018-06-23T09:57:48.453Z,4.00
2018-06-23T09:58:48.419Z,4.20
2018-06-23T09:59:48.388Z,3.10
2018-06-23T10:00:48.387Z,3.70
2018-06-23T10:01:48.328Z,3.80
2018-06-23T10:02:48.296Z,3.70
2018-06-23T10:03:48.269Z,4.10
2018-06-23T10:04:48.239Z,3.70
2018-06-23T10:05:48.207Z,3.50
2018-06-23T10:06:48.177Z,3.60
2018-06-23T10:07:48.148Z,3.60
2018-06-23T10:08:48.117Z,3.50
2018-06-23T10:09:48.088Z,3.10
2018-06-23T10:10:48.056Z,3.00
2018-06-23T10:11:48.025Z,3.50
2018-06-23T10:12:47.997Z,3.70
2018-06-23T10:13:47.964Z,3.10
2018-06-23T10:14:48.278Z,3.70
2018-06-23T10:15:47.908Z,3.00
2018-06-23T10:16:47.874Z,3.50
2018-06-23T10:17:47.847Z,3.50
2018-06-23T10:18:47.817Z,3.10
2018-06-23T10:19:47.809Z,3.20
2018-06-23T10:20:47.757Z,3.70
2018-06-23T10:21:47.727Z,3.10
2018-06-23T10:22:47.695Z,3.10
2018-06-23T10:23:47.668Z,3.20
2018-06-23T10:24:47.632Z,3.00
2018-06-23T10:25:47.638Z,2.90
2018-06-23T10:26:47.569Z,3.30
2018-06-23T10:27:47.544Z,2.80
2018-06-23T10:28:47.513Z,2.40
2018-06-23T10:29:47.485Z,3.00
2018-06-23T10:30:47.452Z,3.10
2018-06-23T10:31:47.423Z,2.60
2018-06-23T10:32:47.391Z,3.10
2018-06-23T10:33:47.358Z,3.30
2018-06-23T10:34:47.333Z,2.80
2018-06-23T10:35:47.296Z,3.00
2018-06-23T10:36:47.273Z,3.40
2018-06-23T10:37:47.240Z,3.10
2018-06-23T10:38:47.276Z,3.00
2018-06-23T10:39:47.172Z,3.20
2018-06-23T10:40:47.136Z,3.30
2018-06-23T10:41:47.117Z,3.30
2018-06-23T10:42:47.080Z,3.30
2018-06-23T10:43:47.047Z,3.00
2018-06-23T10:44:47.018Z,3.00
2018-06-23T10:45:46.984Z,2.60
2018-06-23T10:46:46.960Z,3.00
2018-06-23T10:47:46.922Z,3.10
2018-06-23T10:48:46.891Z,2.90
2018-06-23T10:49:46.869Z,3.10
2018-06-23T10:50:46.828Z,3.30
2018-06-23T10:51:46.798Z,2.70
2018-06-23T10:52:46.766Z,2.70
2018-06-23T10:53:46.733Z,3.30
2018-06-23T10:54:46.706Z,3.00
2018-06-23T10:55:46.675Z,2.80
2018-06-23T10:56:46.652Z,3.50
2018-06-23T10:57:46.697Z,3.30
2018-06-23T10:58:46.578Z,2.80
2018-06-23T10:59:46.544Z,2.90
2018-06-23T11:00:46.519Z,3.20
2018-06-23T11:01:46.488Z,2.90
2018-06-23T11:02:46.460Z,3.10
2018-06-23T11:03:46.424Z,3.00
2018-06-23T11:04:46.495Z,3.30
2018-06-23T11:05:46.361Z,3.00
2018-06-23T11:06:46.331Z,2.90
2018-06-23T11:07:46.293Z,3.10
2018-06-23T11:08:46.268Z,3.30
2018-06-23T11:09:46.236Z,3.10
2018-06-23T11:10:46.206Z,3.30
2018-06-23T11:11:46.175Z,3.00
2018-06-23T11:12:46.143Z,3.20
2018-06-23T11:13:46.112Z,3.20
2018-06-23T11:14:46.084Z,2.80
2018-06-23T11:15:46.052Z,3.00
2018-06-23T11:16:46.020Z,3.10
2018-06-23T11:17:45.998Z,3.10
2018-06-23T11:18:45.958Z,3.10
2018-06-23T11:19:45.936Z,3.50
2018-06-23T11:20:45.890Z,3.00
2018-06-23T11:21:45.882Z,3.40
2018-06-23T11:22:45.830Z,2.50
2018-06-23T11:23:45.794Z,3.10
2018-06-23T11:24:45.779Z,3.20
2018-06-23T11:25:45.738Z,3.40
2018-06-23T11:26:45.704Z,3.50
2018-06-23T11:27:45.675Z,2.80
2018-06-23T11:28:45.640Z,2.80
2018-06-23T11:29:45.620Z,2.80
2018-06-23T11:30:45.578Z,2.80
2018-06-23T11:31:45.548Z,2.90
2018-06-23T11:32:45.533Z,3.20
2018-06-23T11:33:45.486Z,2.70
2018-06-23T11:34:45.452Z,2.90
2018-06-23T11:35:45.419Z,3.20
2018-06-23T11:36:45.387Z,3.30
2018-06-23T11:37:45.357Z,2.90
2018-06-23T11:38:45.326Z,3.20
2018-06-23T11:39:45.294Z,2.70
2018-06-23T11:40:45.281Z,2.80
2018-06-23T11:41:45.227Z,3.00
2018-06-23T11:42:45.197Z,3.10
2018-06-23T11:43:45.166Z,3.40
2018-06-23T11:44:45.132Z,3.70
2018-06-23T11:45:45.103Z,3.50
2018-06-23T11:46:45.070Z,3.10
2018-06-23T11:47:45.039Z,3.00
2018-06-23T11:48:45.011Z,3.60
2018-06-23T11:49:44.972Z,3.80
2018-06-23T11:50:44.944Z,3.80
2018-06-23T11:51:44.909Z,3.20
2018-06-23T11:52:44.878Z,4.40
2018-06-23T11:53:44.871Z,3.50
2018-06-23T11:54:44.818Z,3.40
2018-06-23T11:55:44.782Z,2.70
2018-06-23T11:56:44.756Z,4.20
2018-06-23T11:57:44.718Z,3.20
2018-06-23T11:58:44.687Z,3.30
2018-06-23T11:59:44.654Z,2.90
2018-06-23T12:00:44.622Z,2.90
2018-06-23T12:01:44.603Z,3.10
2018-06-23T12:02:44.557Z,2.90
2018-06-23T12:03:44.526Z,3.10
2018-06-23T12:04:44.491Z,3.60
2018-06-23T12:05:44.460Z,2.70
2018-06-23T12:06:44.429Z,3.20
2018-06-23T12:07:44.393Z,3.50
2018-06-23T12:08:44.365Z,3.60
2018-06-23T12:09:44.332Z,3.30
2018-06-23T12:10:44.304Z,3.70
2018-06-23T12:11:44.267Z,3.40
2018-06-23T12:12:44.236Z,3.50
2018-06-23T12:13:44.207Z,3.60
2018-06-23T12:14:44.172Z,3.00
2018-06-23T12:15:44.138Z,4.50
2018-06-23T12:16:44.108Z,3.50
2018-06-23T12:17:44.075Z,3.30
2018-06-23T12:18:44.043Z,3.10
2018-06-23T12:19:44.011Z,3.20
2018-06-23T12:20:43.978Z,3.60
2018-06-23T12:21:43.947Z,3.70
2018-06-23T12:22:43.934Z,3.30
2018-06-23T12:23:43.884Z,3.40
2018-06-23T12:24:43.848Z,3.00
2018-06-23T12:25:43.820Z,3.70
2018-06-23T12:26:43.785Z,3.10
2018-06-23T12:27:43.754Z,3.30
2018-06-23T12:28:43.721Z,4.20
2018-06-23T12:29:43.690Z,3.20
2018-06-23T12:30:43.657Z,3.80
2018-06-23T12:31:43.624Z,3.80
2018-06-23T12:32:43.593Z,4.40
2018-06-23T12:33:43.559Z,4.20
2018-06-23T12:34:43.532Z,3.80
2018-06-23T12:35:43.516Z,3.70
2018-06-23T12:36:43.474Z,4.20
2018-06-23T12:37:43.435Z,4.20
2018-06-23T12:38:43.400Z,3.90
2018-06-23T12:39:43.369Z,4.60
2018-06-23T12:40:43.339Z,3.80
2018-06-23T12:41:43.460Z,4.30
2018-06-23T12:42:43.272Z,3.40
2018-06-23T12:43:43.936Z,4.40
2018-06-23T12:44:43.216Z,3.40
2018-06-23T12:45:43.182Z,3.80
2018-06-23T12:46:43.145Z,4.10
2018-06-23T12:47:43.113Z,3.90
2018-06-23T12:48:43.100Z,3.60
2018-06-23T12:49:43.049Z,4.70
2018-06-23T12:50:43.021Z,4.50
2018-06-23T12:51:42.986Z,4.40
2018-06-23T12:52:42.955Z,4.50
2018-06-23T12:53:42.921Z,4.40
2018-06-23T12:54:42.908Z,4.20
2018-06-23T12:55:42.855Z,4.40
2018-06-23T12:56:42.848Z,4.30
2018-06-23T12:57:42.791Z,3.30
2018-06-23T12:58:42.759Z,3.90
2018-06-23T12:59:42.725Z,3.30
2018-06-23T13:00:42.699Z,3.30
2018-06-23T13:01:42.664Z,3.70
2018-06-23T13:02:42.633Z,4.00
2018-06-23T13:03:42.600Z,3.40
2018-06-23T13:04:42.644Z,3.70
2018-06-23T13:05:42.541Z,4.00
2018-06-23T13:06:42.503Z,3.90
2018-06-23T13:07:42.470Z,4.00
2018-06-23T13:08:42.439Z,3.90
2018-06-23T13:09:42.409Z,3.70
2018-06-23T13:10:42.379Z,4.10
2018-06-23T13:11:42.343Z,4.50
2018-06-23T13:12:42.352Z,3.90
2018-06-23T13:13:42.280Z,3.70
2018-06-23T13:14:42.247Z,4.00
2018-06-23T13:15:42.217Z,4.00
2018-06-23T13:16:42.185Z,3.80
2018-06-23T13:17:42.153Z,3.90